Time;durP1;ratioP1;P1;durP2;ratioP2;P2;SDS_P1;SDS_P2;PMS_P1;PMS_P2;Temp;Humidity;BMP_temperature;BMP_pressure;BME280_temperature;BME280_humidity;BME280_pressure;Samples;Min_cycle;Max_cycle;Signal;HPM_P1;HPM_P2
2021/05/21 00:01:42;;;;;;;1.47;0.80;;;21.10;52.30;;;;;;5034334;28;20681;-64
2021/05/21 00:04:09;;;;;;;2.83;0.90;;;21.10;52.10;;;;;;5026210;28;20809;-64
2021/05/21 00:06:35;;;;;;;1.20;0.60;;;21.10;52.50;;;;;;5030439;28;20600;-63
2021/05/21 00:09:04;;;;;;;2.67;0.93;;;21.00;52.40;;;;;;5039152;28;20697;-62
2021/05/21 00:11:31;;;;;;;1.53;0.80;;;21.00;52.20;;;;;;5028644;28;20620;-63
2021/05/21 00:13:57;;;;;;;3.27;0.70;;;21.00;52.40;;;;;;5024065;28;20245;-63
2021/05/21 00:16:24;;;;;;;0.60;0.53;;;21.00;51.80;;;;;;5009042;28;20226;-64
2021/05/21 00:18:51;;;;;;;1.63;0.80;;;21.00;52.10;;;;;;5039294;28;20571;-63
2021/05/21 00:21:19;;;;;;;1.30;0.83;;;21.00;52.10;;;;;;5045251;28;20287;-63
2021/05/21 00:23:45;;;;;;;0.90;0.63;;;21.00;51.90;;;;;;5045921;28;20234;-65
2021/05/21 00:26:13;;;;;;;1.10;0.67;;;21.00;51.70;;;;;;5033356;28;20214;-63
2021/05/21 00:28:40;;;;;;;2.30;0.80;;;21.00;51.90;;;;;;5043702;28;20229;-63
2021/05/21 00:31:06;;;;;;;1.10;0.70;;;21.00;51.70;;;;;;5044322;28;20222;-63
2021/05/21 00:33:33;;;;;;;2.80;0.80;;;21.00;51.70;;;;;;5045225;28;20497;-63
2021/05/21 00:36:00;;;;;;;1.40;0.60;;;21.00;51.80;;;;;;5045044;28;20226;-63
2021/05/21 00:38:27;;;;;;;1.43;0.60;;;21.00;51.70;;;;;;5046703;28;20674;-63
2021/05/21 00:40:54;;;;;;;1.67;0.70;;;21.00;51.70;;;;;;5045989;28;20751;-63
2021/05/21 00:43:20;;;;;;;1.03;0.60;;;21.00;51.80;;;;;;5044835;28;20590;-63
2021/05/21 00:45:47;;;;;;;2.40;0.60;;;21.00;51.60;;;;;;5039674;28;20230;-64
2021/05/21 00:48:14;;;;;;;1.13;0.93;;;21.00;51.50;;;;;;5046670;28;20226;-63
2021/05/21 00:50:41;;;;;;;0.70;0.57;;;21.00;51.60;;;;;;5042814;28;20225;-63
2021/05/21 00:53:10;;;;;;;1.03;0.67;;;21.00;51.60;;;;;;5042937;28;20230;-63
2021/05/21 00:55:37;;;;;;;1.60;0.67;;;21.00;51.60;;;;;;5044646;28;20232;-63
2021/05/21 00:58:04;;;;;;;1.37;0.80;;;21.00;51.60;;;;;;5045865;28;20228;-64
2021/05/21 01:00:31;;;;;;;0.93;0.67;;;21.00;51.30;;;;;;5046074;28;20230;-63
2021/05/21 01:02:57;;;;;;;1.20;0.67;;;21.00;51.70;;;;;;5045121;28;20225;-63
2021/05/21 01:05:24;;;;;;;1.83;0.83;;;21.00;51.30;;;;;;5045156;28;20324;-63
2021/05/21 01:07:51;;;;;;;0.93;0.60;;;21.00;51.40;;;;;;5044818;28;20224;-63
2021/05/21 01:10:18;;;;;;;1.13;0.60;;;21.00;51.50;;;;;;5050494;28;20226;-63
2021/05/21 01:12:45;;;;;;;1.13;0.70;;;21.00;51.30;;;;;;5045948;28;20222;-63
2021/05/21 01:15:13;;;;;;;1.93;0.67;;;20.90;51.10;;;;;;5043435;28;20232;-63
2021/05/21 01:17:40;;;;;;;2.10;0.70;;;20.90;51.20;;;;;;5044548;28;20221;-64
2021/05/21 01:20:09;;;;;;;1.37;0.70;;;20.90;51.10;;;;;;5050395;28;20716;-62
2021/05/21 01:22:36;;;;;;;1.83;0.87;;;20.90;51.10;;;;;;5044116;28;20237;-63
2021/05/21 01:25:04;;;;;;;1.27;0.63;;;21.00;51.20;;;;;;5044483;28;20245;-63
2021/05/21 01:27:31;;;;;;;1.47;0.70;;;21.00;51.30;;;;;;5045668;28;20230;-63
2021/05/21 01:29:58;;;;;;;1.23;0.60;;;21.00;51.20;;;;;;5044890;28;20615;-62
2021/05/21 01:32:25;;;;;;;0.97;0.60;;;20.90;50.90;;;;;;5044512;28;20226;-63
2021/05/21 01:34:53;;;;;;;1.77;0.63;;;20.90;51.20;;;;;;5045574;28;20229;-63
2021/05/21 01:37:21;;;;;;;1.73;0.70;;;20.90;51.10;;;;;;5040418;28;20293;-63
2021/05/21 01:39:50;;;;;;;1.73;0.50;;;20.90;51.00;;;;;;5049828;28;20238;-63
2021/05/21 01:42:18;;;;;;;0.77;0.50;;;20.90;51.00;;;;;;5045867;28;20961;-63
2021/05/21 01:44:45;;;;;;;0.87;0.60;;;20.90;51.00;;;;;;5047160;28;20230;-64
2021/05/21 01:47:13;;;;;;;1.27;0.60;;;20.90;51.00;;;;;;5032467;28;20283;-64
2021/05/21 01:49:41;;;;;;;1.47;0.70;;;20.90;50.90;;;;;;5046572;28;20792;-63
2021/05/21 01:52:08;;;;;;;0.63;0.50;;;20.90;50.60;;;;;;5043816;28;20222;-63
2021/05/21 01:54:36;;;;;;;0.70;0.60;;;20.90;50.80;;;;;;5046905;28;20226;-63
2021/05/21 01:57:04;;;;;;;0.80;0.50;;;20.90;50.90;;;;;;5047940;28;20254;-63
2021/05/21 01:59:31;;;;;;;1.20;0.70;;;20.90;50.80;;;;;;5049322;28;20241;-63
2021/05/21 02:01:59;;;;;;;2.87;0.67;;;20.90;50.80;;;;;;5046255;28;20249;-63
2021/05/21 02:04:35;;;;;;;1.70;0.83;;;20.90;50.70;;;;;;5048944;28;20628;-63
2021/05/21 02:07:03;;;;;;;0.50;0.50;;;20.90;50.70;;;;;;5048190;28;21054;-63
2021/05/21 02:09:53;;;;;;;0.77;0.37;;;20.90;50.70;;;;;;5054953;28;20230;-63
2021/05/21 02:12:25;;;;;;;2.70;0.90;;;20.90;50.80;;;;;;5045829;28;20854;-63
2021/05/21 02:14:54;;;;;;;1.20;0.60;;;20.90;50.60;;;;;;5026380;28;22975;-63
2021/05/21 02:17:21;;;;;;;1.37;0.70;;;20.80;50.70;;;;;;5029861;28;20227;-64
2021/05/21 02:19:48;;;;;;;0.80;0.50;;;20.80;50.70;;;;;;5027253;28;20234;-63
2021/05/21 02:22:18;;;;;;;2.57;0.60;;;20.90;50.60;;;;;;5037547;28;20238;-63
2021/05/21 02:24:45;;;;;;;0.77;0.50;;;20.80;50.90;;;;;;5044213;28;20210;-64
2021/05/21 02:27:12;;;;;;;0.80;0.70;;;20.90;50.50;;;;;;5043504;28;20226;-63
2021/05/21 02:29:39;;;;;;;0.97;0.70;;;20.90;50.60;;;;;;5047163;28;20233;-64
2021/05/21 02:32:06;;;;;;;0.83;0.50;;;20.80;50.60;;;;;;5046087;28;20224;-63
2021/05/21 02:34:33;;;;;;;0.90;0.60;;;20.80;50.50;;;;;;5047756;28;20213;-63
2021/05/21 02:37:00;;;;;;;1.07;0.50;;;20.80;50.30;;;;;;5047041;28;20682;-64
2021/05/21 02:39:27;;;;;;;1.13;0.60;;;20.90;50.40;;;;;;5047029;28;20226;-64
2021/05/21 02:41:55;;;;;;;2.03;0.80;;;20.80;50.40;;;;;;5055757;28;20238;-68
2021/05/21 02:44:22;;;;;;;0.70;0.50;;;20.80;50.50;;;;;;5049368;28;20232;-64
2021/05/21 02:46:49;;;;;;;1.43;0.60;;;20.80;50.50;;;;;;5045777;28;20257;-64
2021/05/21 02:49:19;;;;;;;0.87;0.70;;;20.80;50.40;;;;;;5044175;28;20382;-63
2021/05/21 02:51:47;;;;;;;0.90;0.60;;;20.80;50.50;;;;;;5047857;28;20218;-63
2021/05/21 02:54:14;;;;;;;0.67;0.60;;;20.80;50.50;;;;;;5045469;28;20214;-63
2021/05/21 02:56:41;;;;;;;1.67;0.70;;;20.80;50.30;;;;;;5040029;28;20231;-64
2021/05/21 02:59:08;;;;;;;0.60;0.50;;;20.80;50.50;;;;;;5047768;28;20218;-63
2021/05/21 03:01:35;;;;;;;1.33;0.60;;;20.80;50.50;;;;;;5049207;28;20224;-63
2021/05/21 03:04:02;;;;;;;1.33;0.70;;;20.80;50.50;;;;;;5045514;28;20280;-64
2021/05/21 03:06:29;;;;;;;1.73;0.70;;;20.80;50.50;;;;;;5049309;28;20893;-64
2021/05/21 03:08:56;;;;;;;0.53;0.50;;;20.80;50.30;;;;;;5048755;28;20237;-64
2021/05/21 03:11:23;;;;;;;0.70;0.60;;;20.80;50.40;;;;;;5046332;28;22028;-63
2021/05/21 03:13:50;;;;;;;1.00;0.90;;;20.80;50.70;;;;;;5044381;28;20234;-63
2021/05/21 03:16:16;;;;;;;1.13;0.57;;;20.80;50.50;;;;;;5038138;28;20222;-63
2021/05/21 03:18:43;;;;;;;1.70;0.60;;;20.80;50.50;;;;;;5028368;28;20250;-64
2021/05/21 03:21:10;;;;;;;1.40;0.50;;;20.80;50.50;;;;;;5043458;28;20288;-63
2021/05/21 03:23:37;;;;;;;1.27;0.80;;;20.80;50.60;;;;;;5045633;28;20249;-63
2021/05/21 03:26:04;;;;;;;1.53;0.83;;;20.80;50.60;;;;;;5046275;28;20318;-63
2021/05/21 03:28:31;;;;;;;0.60;0.47;;;20.80;50.60;;;;;;5045588;28;20234;-63
2021/05/21 03:30:58;;;;;;;1.27;0.60;;;20.80;50.70;;;;;;5043082;28;20232;-60
2021/05/21 03:33:24;;;;;;;2.97;0.60;;;20.80;50.70;;;;;;5027836;28;20264;-63
2021/05/21 03:35:51;;;;;;;1.93;0.60;;;20.80;50.80;;;;;;5037317;28;20634;-64
2021/05/21 03:38:18;;;;;;;1.03;0.53;;;20.80;50.80;;;;;;5039896;28;20764;-62
2021/05/21 03:40:45;;;;;;;1.40;0.90;;;20.70;50.70;;;;;;5046920;28;20230;-63
2021/05/21 03:43:12;;;;;;;1.40;0.60;;;20.80;50.70;;;;;;5044938;28;20236;-63
2021/05/21 03:45:39;;;;;;;1.53;0.70;;;20.80;50.80;;;;;;5046680;28;20214;-63
2021/05/21 03:48:06;;;;;;;2.87;0.70;;;20.70;50.80;;;;;;5045761;28;20244;-63
2021/05/21 03:50:33;;;;;;;1.10;0.60;;;20.70;50.70;;;;;;5045908;28;20222;-63
2021/05/21 03:53:00;;;;;;;1.53;0.70;;;20.80;50.70;;;;;;5045658;28;20232;-62
2021/05/21 03:55:34;;;;;;;0.63;0.50;;;20.70;50.70;;;;;;5054005;28;20777;-61
2021/05/21 03:58:02;;;;;;;1.00;0.60;;;20.80;50.70;;;;;;5045862;28;20477;-55
2021/05/21 04:00:29;;;;;;;1.00;0.50;;;20.70;50.70;;;;;;5050174;28;20229;-56
2021/05/21 04:02:56;;;;;;;1.20;0.70;;;20.80;50.70;;;;;;5044457;28;20225;-58
2021/05/21 04:05:23;;;;;;;1.50;0.63;;;20.70;50.70;;;;;;5041624;28;20225;-58
2021/05/21 04:07:50;;;;;;;0.70;0.50;;;20.70;50.70;;;;;;5043904;28;20241;-58
2021/05/21 04:10:17;;;;;;;1.03;0.60;;;20.80;50.80;;;;;;5043591;28;20268;-58
2021/05/21 04:12:45;;;;;;;1.50;0.60;;;20.80;50.70;;;;;;5052264;28;20221;-58
2021/05/21 04:15:12;;;;;;;1.73;0.70;;;20.80;50.70;;;;;;5046481;28;20217;-58
2021/05/21 04:17:39;;;;;;;1.40;0.60;;;20.70;50.60;;;;;;5043935;28;20222;-58
2021/05/21 04:20:07;;;;;;;0.73;0.50;;;20.70;50.70;;;;;;5045221;28;20220;-58
2021/05/21 04:22:33;;;;;;;0.80;0.57;;;20.70;50.80;;;;;;5043890;28;20218;-58
2021/05/21 04:25:00;;;;;;;1.23;0.60;;;20.70;50.70;;;;;;5044835;28;20218;-57
2021/05/21 04:27:28;;;;;;;1.93;0.80;;;20.70;50.70;;;;;;5045698;28;20821;-59
2021/05/21 04:29:55;;;;;;;0.80;0.70;;;20.70;50.60;;;;;;5044879;28;20218;-59
2021/05/21 04:32:21;;;;;;;1.03;0.80;;;20.80;50.80;;;;;;5047409;28;20230;-55
2021/05/21 04:34:54;;;;;;;2.10;0.70;;;20.80;50.70;;;;;;5048953;28;20249;-55
2021/05/21 04:37:21;;;;;;;2.07;0.70;;;20.80;50.80;;;;;;5059578;28;20217;-56
2021/05/21 04:39:48;;;;;;;1.23;0.80;;;20.70;50.60;;;;;;5050009;28;20233;-55
2021/05/21 04:42:34;;;;;;;1.97;0.77;;;20.70;50.70;;;;;;5020217;28;20431;-55
2021/05/21 04:45:02;;;;;;;1.53;0.67;;;20.70;50.70;;;;;;5036885;28;20218;-56
2021/05/21 04:47:29;;;;;;;1.07;0.63;;;20.70;50.70;;;;;;5041879;28;20226;-56
2021/05/21 04:49:55;;;;;;;1.70;0.73;;;20.70;50.70;;;;;;5040245;28;20214;-54
2021/05/21 04:52:22;;;;;;;0.83;0.60;;;20.70;50.60;;;;;;5049804;28;20224;-54
2021/05/21 04:54:54;;;;;;;0.80;0.50;;;20.70;50.70;;;;;;5052218;28;20696;-56
2021/05/21 04:57:21;;;;;;;1.33;0.80;;;20.80;50.70;;;;;;5058183;28;20299;-55
2021/05/21 04:59:48;;;;;;;1.97;0.60;;;20.80;50.70;;;;;;5036189;28;20706;-56
2021/05/21 05:02:15;;;;;;;1.13;0.50;;;20.70;50.70;;;;;;5030031;28;20766;-55
2021/05/21 05:04:52;;;;;;;2.27;0.57;;;20.70;50.80;;;;;;5034293;28;20226;-54
2021/05/21 05:07:19;;;;;;;1.50;0.80;;;20.70;50.70;;;;;;5036527;28;20706;-58
2021/05/21 05:09:45;;;;;;;0.80;0.60;;;20.70;50.60;;;;;;5043552;28;20233;-57
2021/05/21 05:12:12;;;;;;;1.97;0.87;;;20.70;50.70;;;;;;5037074;28;20213;-58
2021/05/21 05:14:39;;;;;;;2.10;0.90;;;20.80;50.80;;;;;;5046341;28;20225;-57
2021/05/21 05:17:06;;;;;;;2.50;0.80;;;20.70;50.80;;;;;;5052706;28;20251;-59
2021/05/21 05:19:33;;;;;;;2.20;0.83;;;20.70;51.00;;;;;;5049069;28;20222;-58
2021/05/21 05:22:00;;;;;;;3.63;0.90;;;20.80;51.10;;;;;;5052288;28;20209;-58
2021/05/21 05:24:32;;;;;;;2.43;0.90;;;20.80;51.10;;;;;;5049127;28;20233;-58
2021/05/21 05:26:59;;;;;;;3.47;1.20;;;20.80;51.20;;;;;;5049668;28;21572;-58
2021/05/21 05:29:26;;;;;;;2.40;1.10;;;20.70;51.10;;;;;;5053429;28;20237;-56
2021/05/21 05:31:53;;;;;;;3.00;0.80;;;20.80;51.00;;;;;;5044858;28;20230;-54
2021/05/21 05:34:30;;;;;;;3.23;0.97;;;20.80;50.90;;;;;;5047796;28;20225;-55
2021/05/21 05:36:57;;;;;;;4.03;0.80;;;20.80;50.80;;;;;;5048404;28;20499;-54
2021/05/21 05:39:24;;;;;;;2.93;1.00;;;20.70;50.60;;;;;;5031937;28;20358;-55
2021/05/21 05:41:51;;;;;;;1.90;0.87;;;20.80;50.70;;;;;;5052445;28;20233;-55
2021/05/21 05:44:23;;;;;;;3.53;0.93;;;20.80;50.60;;;;;;5049417;28;20230;-56
2021/05/21 05:46:50;;;;;;;2.50;0.90;;;20.80;50.50;;;;;;5054121;28;20238;-55
2021/05/21 05:49:17;;;;;;;1.60;1.00;;;20.80;50.70;;;;;;5048503;28;20234;-56
2021/05/21 05:51:44;;;;;;;4.13;1.00;;;20.80;50.70;;;;;;5058508;28;20224;-57
2021/05/21 05:54:11;;;;;;;2.67;0.93;;;20.80;50.60;;;;;;5047487;28;20622;-55
2021/05/21 05:56:38;;;;;;;2.10;0.90;;;20.80;50.80;;;;;;5048874;28;20244;-58
2021/05/21 05:59:05;;;;;;;3.10;1.00;;;20.80;50.90;;;;;;5051961;28;20229;-58
2021/05/21 06:01:32;;;;;;;4.17;1.17;;;20.80;51.00;;;;;;5056696;28;20225;-62
2021/05/21 06:03:58;;;;;;;8.43;1.30;;;20.80;50.70;;;;;;5056248;28;20260;-62
2021/05/21 06:06:25;;;;;;;11.13;1.87;;;20.90;52.10;;;;;;5057583;28;20249;-59
2021/05/21 06:08:55;;;;;;;6.88;1.60;;;20.90;52.90;;;;;;5030213;28;20675;-59
2021/05/21 06:11:22;;;;;;;7.17;1.37;;;20.90;53.80;;;;;;5035557;28;20235;-59
2021/05/21 06:13:50;;;;;;;4.37;1.00;;;20.90;53.50;;;;;;5039536;28;20227;-57
2021/05/21 06:16:17;;;;;;;8.23;1.30;;;20.90;53.20;;;;;;5045863;28;20230;-66
2021/05/21 06:18:46;;;;;;;6.07;1.30;;;21.00;53.00;;;;;;5047228;28;20226;-65
2021/05/21 06:21:14;;;;;;;5.90;1.40;;;21.00;52.80;;;;;;5046694;28;20728;-67
2021/05/21 06:23:43;;;;;;;5.83;1.40;;;21.00;52.60;;;;;;5047605;28;20244;-68
2021/05/21 06:28:41;;;;;;;4.33;1.30;;;21.10;52.40;;;;;;5040793;28;20229;-67
2021/05/21 06:31:09;;;;;;;10.40;2.30;;;21.10;52.20;;;;;;5050452;28;20258;-65
2021/05/21 06:33:35;;;;;;;9.17;1.90;;;21.10;56.80;;;;;;5048386;28;20230;-66
2021/05/21 06:36:03;;;;;;;8.47;1.77;;;21.10;57.90;;;;;;5049288;28;20227;-65
2021/05/21 06:38:30;;;;;;;6.67;1.47;;;21.20;58.30;;;;;;5048679;28;20238;-63
2021/05/21 06:40:57;;;;;;;4.53;1.77;;;21.20;58.80;;;;;;5047324;28;20238;-64
2021/05/21 06:43:28;;;;;;;5.90;1.50;;;21.20;58.60;;;;;;5051255;28;21343;-65
2021/05/21 06:46:01;;;;;;;5.07;1.60;;;21.20;58.30;;;;;;5049605;28;20233;-65
2021/05/21 06:48:30;;;;;;;4.80;1.63;;;21.20;57.60;;;;;;5027749;28;20264;-64
2021/05/21 06:50:59;;;;;;;4.43;1.30;;;21.30;56.70;;;;;;5036956;28;21412;-63
2021/05/21 06:53:26;;;;;;;3.70;1.47;;;21.30;56.20;;;;;;5039035;28;20517;-64
2021/05/21 06:55:58;;;;;;;2.93;1.40;;;21.30;55.10;;;;;;5038197;28;20225;-63
2021/05/21 06:58:26;;;;;;;2.30;1.20;;;21.30;54.30;;;;;;5039281;28;20705;-64
2021/05/21 07:00:57;;;;;;;4.53;1.70;;;21.20;53.70;;;;;;5027675;28;20685;-59
2021/05/21 07:03:28;;;;;;;4.97;1.50;;;21.20;53.50;;;;;;5044697;28;21595;-59
2021/05/21 07:05:56;;;;;;;3.30;1.23;;;21.30;53.20;;;;;;5054935;28;20301;-59
2021/05/21 07:08:24;;;;;;;3.70;1.60;;;21.30;52.80;;;;;;5046966;28;20257;-58
2021/05/21 07:10:51;;;;;;;5.63;1.90;;;21.20;52.90;;;;;;5046847;28;20306;-57
2021/05/21 07:13:18;;;;;;;9.17;2.87;;;21.30;52.30;;;;;;5044355;28;20226;-60
2021/05/21 07:15:46;;;;;;;5.33;2.10;;;21.30;54.30;;;;;;5034817;28;20223;-59
2021/05/21 07:18:12;;;;;;;5.27;2.00;;;21.20;54.60;;;;;;5029216;28;20230;-58
2021/05/21 07:20:45;;;;;;;4.13;2.00;;;21.30;55.20;;;;;;5041783;28;20232;-58
2021/05/21 07:23:12;;;;;;;4.07;1.80;;;21.20;55.40;;;;;;5048653;28;20305;-58
2021/05/21 07:25:39;;;;;;;4.60;1.87;;;21.20;55.70;;;;;;5045392;28;20702;-58
2021/05/21 07:28:06;;;;;;;6.03;2.07;;;21.20;55.70;;;;;;5028524;28;20218;-58
2021/05/21 07:30:33;;;;;;;4.53;1.90;;;21.20;55.90;;;;;;5032298;28;20227;-58
2021/05/21 07:33:00;;;;;;;5.60;1.90;;;21.20;56.10;;;;;;5044242;28;20218;-60
2021/05/21 07:35:29;;;;;;;3.73;1.67;;;21.10;55.90;;;;;;5045323;28;20218;-60
2021/05/21 07:37:56;;;;;;;5.97;1.77;;;21.20;55.90;;;;;;5035648;28;20424;-59
2021/05/21 07:40:24;;;;;;;3.53;1.40;;;21.10;55.80;;;;;;5025100;28;20226;-59
2021/05/21 07:42:52;;;;;;;4.43;1.60;;;21.10;56.30;;;;;;5026545;28;20240;-59
2021/05/21 07:45:19;;;;;;;4.27;1.90;;;21.10;56.00;;;;;;5025357;28;20733;-58
2021/05/21 07:47:46;;;;;;;7.83;2.00;;;21.10;56.20;;;;;;5043160;28;20212;-59
2021/05/21 07:50:13;;;;;;;3.87;1.87;;;21.10;56.30;;;;;;5038476;28;20230;-57
2021/05/21 07:52:40;;;;;;;5.60;1.50;;;21.10;57.00;;;;;;5046536;28;20225;-57
2021/05/21 07:55:08;;;;;;;4.07;1.87;;;21.10;55.90;;;;;;5046113;28;20219;-57
2021/05/21 07:57:37;;;;;;;4.53;1.80;;;21.10;55.60;;;;;;5045582;28;20851;-59
2021/05/21 08:00:06;;;;;;;3.30;1.73;;;21.10;56.30;;;;;;5045803;28;20854;-58
2021/05/21 08:02:34;;;;;;;5.23;1.80;;;21.10;56.50;;;;;;5046934;28;20232;-58
2021/05/21 08:05:01;;;;;;;5.63;2.03;;;21.10;56.40;;;;;;5038327;28;20795;-60
2021/05/21 08:07:29;;;;;;;5.10;1.90;;;21.10;56.30;;;;;;5045316;28;20281;-58
2021/05/21 08:09:57;;;;;;;5.53;2.00;;;21.10;56.40;;;;;;5046072;28;20245;-58
2021/05/21 08:12:23;;;;;;;4.00;1.70;;;21.10;56.70;;;;;;5044667;28;20233;-58
2021/05/21 08:14:51;;;;;;;4.70;2.10;;;21.10;57.00;;;;;;5044866;28;20261;-58
2021/05/21 08:17:18;;;;;;;4.53;1.93;;;21.10;57.20;;;;;;5045526;28;20229;-59
2021/05/21 08:19:45;;;;;;;4.47;2.00;;;21.10;57.10;;;;;;5034238;28;20218;-58
2021/05/21 08:22:13;;;;;;;5.13;2.00;;;21.10;57.30;;;;;;5044539;28;20228;-58
2021/05/21 08:24:40;;;;;;;5.73;1.73;;;21.10;57.60;;;;;;5039668;28;20248;-58
2021/05/21 08:27:08;;;;;;;6.20;2.30;;;21.10;57.20;;;;;;5040329;28;20230;-59
2021/05/21 08:29:35;;;;;;;6.53;1.90;;;21.00;57.20;;;;;;5043629;28;20233;-57
2021/05/21 08:32:02;;;;;;;5.53;1.97;;;21.00;57.20;;;;;;5033565;28;20230;-57
2021/05/21 08:34:29;;;;;;;5.30;1.83;;;21.10;57.00;;;;;;5020522;28;20230;-60
2021/05/21 08:36:56;;;;;;;6.90;2.20;;;21.00;56.90;;;;;;5025091;28;20226;-58
2021/05/21 08:39:23;;;;;;;8.73;2.13;;;21.00;56.90;;;;;;5036988;28;20251;-58
2021/05/21 08:41:53;;;;;;;7.47;2.40;;;21.00;56.50;;;;;;5024301;28;20244;-58
2021/05/21 08:44:21;;;;;;;7.70;2.50;;;21.10;55.90;;;;;;5044068;28;20252;-58
2021/05/21 08:46:48;;;;;;;4.87;2.27;;;21.00;55.80;;;;;;5041122;28;20237;-58
2021/05/21 08:49:16;;;;;;;6.23;1.97;;;21.00;55.50;;;;;;5038108;28;20230;-58
2021/05/21 08:51:43;;;;;;;7.17;2.10;;;21.00;54.90;;;;;;5043979;28;20233;-57
2021/05/21 08:54:29;;;;;;;6.00;2.47;;;21.10;55.20;;;;;;5044189;28;20412;-57
2021/05/21 08:56:56;;;;;;;5.77;2.13;;;21.00;54.30;;;;;;5037675;28;20617;-59
2021/05/21 08:59:22;;;;;;;6.73;2.20;;;21.00;54.40;;;;;;5035473;28;20670;-58
2021/05/21 09:01:53;;;;;;;7.83;2.60;;;21.00;53.90;;;;;;5044624;28;20222;-58
2021/05/21 09:04:22;;;;;;;6.43;2.10;;;21.00;53.70;;;;;;5042666;28;20230;-59
2021/05/21 09:06:49;;;;;;;6.57;2.20;;;21.00;53.80;;;;;;5045087;28;21621;-57
2021/05/21 09:09:16;;;;;;;5.43;2.30;;;21.00;53.00;;;;;;5043610;28;20223;-57
2021/05/21 09:11:43;;;;;;;6.57;2.63;;;21.00;53.00;;;;;;5043277;28;20375;-57
2021/05/21 09:14:18;;;;;;;8.17;2.57;;;21.00;53.00;;;;;;5036996;28;20633;-59
2021/05/21 09:16:47;;;;;;;6.37;2.43;;;21.00;53.30;;;;;;5042345;28;20225;-59
2021/05/21 09:19:15;;;;;;;4.50;1.93;;;20.90;54.40;;;;;;5039641;28;20222;-59
2021/05/21 09:21:47;;;;;;;8.50;2.50;;;21.00;53.90;;;;;;5040480;28;20218;-59
2021/05/21 09:24:15;;;;;;;7.03;2.60;;;21.00;53.50;;;;;;5026719;28;20281;-58
2021/05/21 09:26:45;;;;;;;6.40;2.30;;;21.00;53.40;;;;;;5034762;28;20222;-58
2021/05/21 09:29:14;;;;;;;7.67;2.30;;;21.00;53.30;;;;;;5043753;28;20226;-59
2021/05/21 09:31:50;;;;;;;6.10;2.40;;;21.00;53.70;;;;;;5043867;28;20226;-58
2021/05/21 09:34:31;;;;;;;8.33;2.37;;;21.00;52.70;;;;;;5052828;28;20231;-58
2021/05/21 09:36:58;;;;;;;6.07;2.10;;;21.00;52.60;;;;;;5047867;28;22027;-57
2021/05/21 09:39:25;;;;;;;9.00;2.63;;;21.00;51.40;;;;;;5027006;28;20223;-59
2021/05/21 09:41:57;;;;;;;6.13;2.37;;;21.00;52.40;;;;;;5022359;28;20882;-57
2021/05/21 09:44:27;;;;;;;10.33;2.50;;;21.00;52.60;;;;;;5031087;28;20336;-59
2021/05/21 09:46:54;;;;;;;6.87;2.50;;;21.00;52.60;;;;;;5044048;28;20291;-59
2021/05/21 09:49:35;;;;;;;5.57;2.30;;;21.00;52.80;;;;;;5034021;28;20230;-59
2021/05/21 09:52:10;;;;;;;6.13;2.60;;;21.00;51.80;;;;;;5043588;28;20570;-59
2021/05/21 09:54:55;;;;;;;8.07;3.00;;;21.00;51.80;;;;;;5048911;28;20233;-58
2021/05/21 09:57:36;;;;;;;6.43;2.87;;;21.00;51.40;;;;;;5031384;28;20222;-55
2021/05/21 10:00:09;;;;;;;8.33;2.60;;;21.00;51.00;;;;;;5049232;28;21513;-55
2021/05/21 10:02:37;;;;;;;9.20;2.80;;;21.00;51.40;;;;;;5052876;28;20226;-54
2021/05/21 10:05:06;;;;;;;6.30;2.60;;;21.00;51.30;;;;;;5049436;28;20230;-55
2021/05/21 10:07:34;;;;;;;4.87;2.00;;;21.00;51.20;;;;;;5054130;28;20705;-56
2021/05/21 10:10:01;;;;;;;4.30;1.80;;;20.90;51.40;;;;;;5043306;28;20892;-56
2021/05/21 10:12:28;;;;;;;6.93;2.50;;;21.00;51.00;;;;;;5036620;28;20258;-55
2021/05/21 10:14:57;;;;;;;6.13;2.33;;;21.00;50.90;;;;;;5030994;28;20225;-55
2021/05/21 10:17:25;;;;;;;6.00;2.33;;;21.00;51.10;;;;;;5045529;28;20234;-55
2021/05/21 10:19:54;;;;;;;5.10;2.40;;;21.00;50.30;;;;;;5030106;28;20233;-54
2021/05/21 10:22:47;;;;;;;8.33;2.93;;;21.00;49.90;;;;;;5025758;28;20923;-57
2021/05/21 10:25:26;;;;;;;6.33;2.50;;;21.00;49.60;;;;;;5029363;28;20318;-57
2021/05/21 10:27:56;;;;;;;6.33;2.50;;;21.00;49.40;;;;;;5043186;28;20230;-58
2021/05/21 10:30:25;;;;;;;5.33;2.30;;;21.00;49.00;;;;;;5047183;28;20233;-54
2021/05/21 10:33:11;;;;;;;6.73;2.40;;;21.00;48.80;;;;;;5034343;28;20226;-56
2021/05/21 10:35:39;;;;;;;8.87;2.80;;;21.00;48.70;;;;;;5022632;28;20756;-57
2021/05/21 10:38:26;;;;;;;6.73;2.70;;;21.00;48.50;;;;;;5048157;28;20237;-57
2021/05/21 10:41:15;;;;;;;6.60;2.40;;;21.00;47.60;;;;;;5036141;28;20226;-59
2021/05/21 10:43:50;;;;;;;6.43;2.70;;;21.00;48.20;;;;;;5014680;28;20627;-58
2021/05/21 10:46:18;;;;;;;5.67;2.23;;;21.00;47.80;;;;;;5032181;28;20221;-59
2021/05/21 10:48:57;;;;;;;6.47;2.47;;;21.00;48.20;;;;;;5040188;28;20227;-59
2021/05/21 10:51:26;;;;;;;5.97;2.30;;;21.00;48.20;;;;;;5034565;28;20229;-61
2021/05/21 10:54:23;;;;;;;7.20;2.20;;;21.00;47.80;;;;;;5054493;28;20222;-62
2021/05/21 10:56:53;;;;;;;9.37;2.57;;;21.00;47.90;;;;;;5024405;28;20543;-63
2021/05/21 10:59:20;;;;;;;7.37;2.40;;;21.00;47.50;;;;;;5043524;28;20741;-63
2021/05/21 11:01:48;;;;;;;9.40;2.93;;;21.00;47.00;;;;;;5044016;28;20827;-54
2021/05/21 11:04:30;;;;;;;8.57;2.97;;;21.00;46.50;;;;;;5040513;28;20408;-58
2021/05/21 11:06:57;;;;;;;8.13;2.40;;;21.00;46.40;;;;;;5048979;28;20218;-56
2021/05/21 11:09:31;;;;;;;6.73;2.63;;;21.00;47.20;;;;;;5053691;28;20854;-54
2021/05/21 11:12:07;;;;;;;8.40;2.90;;;21.00;46.00;;;;;;5064685;28;20364;-55
2021/05/21 11:14:44;;;;;;;6.57;2.40;;;21.00;45.50;;;;;;5024457;28;20958;-56
2021/05/21 11:17:24;;;;;;;6.37;2.00;;;21.00;45.90;;;;;;5067196;28;20232;-56
2021/05/21 11:19:59;;;;;;;5.73;2.13;;;21.00;46.30;;;;;;5049718;28;20228;-55
2021/05/21 11:22:26;;;;;;;6.87;2.10;;;21.00;45.20;;;;;;5037313;28;21519;-56
2021/05/21 11:25:22;;;;;;;7.10;2.70;;;21.00;45.00;;;;;;5057596;28;20218;-56
2021/05/21 11:27:49;;;;;;;7.50;2.53;;;21.00;43.90;;;;;;5032511;28;20222;-54
2021/05/21 11:30:16;;;;;;;9.37;2.40;;;21.00;43.80;;;;;;5038728;28;20230;-55
2021/05/21 11:32:43;;;;;;;8.67;2.60;;;21.00;43.80;;;;;;5050178;28;20226;-55
2021/05/21 11:35:15;;;;;;;6.73;2.27;;;21.00;43.40;;;;;;5031539;28;20218;-55
2021/05/21 11:37:43;;;;;;;7.47;2.70;;;21.00;43.70;;;;;;5042139;28;20226;-56
2021/05/21 11:40:10;;;;;;;7.17;2.10;;;21.00;43.80;;;;;;5039266;28;20223;-54
2021/05/21 11:42:37;;;;;;;9.07;2.40;;;21.00;44.30;;;;;;5040230;28;20227;-55
2021/05/21 11:45:10;;;;;;;7.90;2.27;;;21.00;44.60;;;;;;5055438;28;20214;-55
2021/05/21 11:47:37;;;;;;;6.53;2.20;;;21.00;44.90;;;;;;5055789;28;20229;-57
2021/05/21 11:50:07;;;;;;;4.87;2.20;;;21.00;45.10;;;;;;5052900;28;20569;-54
2021/05/21 11:52:34;;;;;;;5.53;2.10;;;21.00;44.90;;;;;;5048605;28;20218;-56
2021/05/21 11:55:06;;;;;;;9.10;2.60;;;21.00;44.70;;;;;;5048969;28;20271;-56
2021/05/21 11:57:33;;;;;;;8.60;2.53;;;21.00;44.90;;;;;;5046812;28;20744;-55
2021/05/21 12:00:00;;;;;;;8.30;2.37;;;21.00;44.30;;;;;;5043538;28;20939;-57
2021/05/21 12:02:27;;;;;;;6.20;2.60;;;21.00;44.10;;;;;;5033120;28;20220;-55
2021/05/21 12:05:06;;;;;;;9.33;2.33;;;21.00;44.10;;;;;;5011605;28;20227;-55
2021/05/21 12:07:37;;;;;;;9.63;2.30;;;21.00;43.90;;;;;;5037336;28;20594;-55
2021/05/21 12:10:04;;;;;;;7.93;2.40;;;21.00;44.30;;;;;;5045033;28;20238;-55
2021/05/21 12:12:34;;;;;;;8.73;2.10;;;21.00;44.40;;;;;;5048170;28;20226;-54
2021/05/21 12:15:11;;;;;;;5.63;2.13;;;21.00;45.00;;;;;;5040128;28;20604;-57
2021/05/21 12:17:52;;;;;;;5.23;2.10;;;21.00;45.00;;;;;;5021171;28;20236;-63
2021/05/21 12:20:21;;;;;;;8.73;2.17;;;21.10;45.60;;;;;;5036694;28;20835;-63
2021/05/21 12:23:05;;;;;;;6.43;2.33;;;21.00;45.70;;;;;;5038183;28;20817;-63
2021/05/21 12:25:35;;;;;;;6.13;1.77;;;21.10;45.90;;;;;;5041122;28;20313;-63
2021/05/21 12:28:04;;;;;;;4.37;1.70;;;21.10;46.00;;;;;;5026606;28;20231;-62
2021/05/21 12:30:31;;;;;;;7.90;2.20;;;21.10;46.00;;;;;;5029652;28;20225;-54
2021/05/21 12:32:59;;;;;;;4.63;1.73;;;21.10;46.20;;;;;;5049319;28;20449;-56
2021/05/21 12:36:21;;;;;;;6.77;2.03;;;21.10;46.30;;;;;;5044924;28;22173;-56
2021/05/21 12:38:51;;;;;;;6.37;2.20;;;21.10;45.90;;;;;;5020988;28;20277;-56
2021/05/21 12:41:27;;;;;;;6.10;1.90;;;21.10;45.80;;;;;;5054171;28;20226;-54
2021/05/21 12:43:54;;;;;;;5.70;2.27;;;21.10;46.10;;;;;;5031560;28;20552;-55
2021/05/21 12:46:21;;;;;;;4.73;1.90;;;21.10;45.80;;;;;;5051375;28;20233;-58
2021/05/21 12:48:51;;;;;;;7.00;2.07;;;21.10;46.00;;;;;;5046984;28;20719;-59
2021/05/21 12:51:22;;;;;;;5.87;2.10;;;21.10;46.20;;;;;;5047105;28;20248;-58
2021/05/21 12:53:50;;;;;;;5.43;2.00;;;21.20;46.40;;;;;;5040354;28;20230;-58
2021/05/21 12:56:33;;;;;;;7.20;2.63;;;21.20;45.90;;;;;;5037008;28;20763;-58
2021/05/21 12:59:04;;;;;;;6.93;2.10;;;21.10;45.20;;;;;;5034341;28;20352;-59